Time;durP1;ratioP1;P1;durP2;ratioP2;P2;SDS_P1;SDS_P2;PMS_P1;PMS_P2;Temp;Humidity;BMP_temperature;BMP_pressure;BME280_temperature;BME280_humidity;BME280_pressure;Samples;Min_cycle;Max_cycle;Signal;HPM_P1;HPM_P2
2023/06/30 00:01:48;;;;;;;;;16.80;15.80;;;;;20.07;40.59;99270.59;4890596;29;8878;-79
2023/06/30 00:04:18;;;;;;;;;14.60;14.60;;;;;19.94;40.82;99271.50;4899377;29;8873;-81
2023/06/30 00:06:50;;;;;;;;;14.20;13.20;;;;;19.74;41.44;99273.59;4887150;29;9020;-78
2023/06/30 00:09:20;;;;;;;;;13.80;13.80;;;;;19.15;43.04;99278.16;4881669;29;8872;-78
2023/06/30 00:11:51;;;;;;;;;16.20;16.20;;;;;18.91;43.55;99279.56;4859747;29;8891;-82
2023/06/30 00:14:22;;;;;;;;;18.00;17.40;;;;;19.10;43.29;99273.09;4877179;29;8864;-80
2023/06/30 00:16:51;;;;;;;;;20.40;17.80;;;;;19.09;43.15;99272.25;4876596;29;8911;-83
2023/06/30 00:19:20;;;;;;;;;21.60;21.20;;;;;18.98;43.51;99271.19;4875707;29;9597;-81
2023/06/30 00:21:52;;;;;;;;;16.40;16.40;;;;;18.93;43.67;99268.78;4875097;29;9699;-79
2023/06/30 00:24:21;;;;;;;;;12.80;11.80;;;;;19.15;43.04;99268.34;4875141;29;8871;-80
2023/06/30 00:26:50;;;;;;;;;15.80;15.40;;;;;19.17;42.99;99273.59;4874711;29;8872;-79
2023/06/30 00:29:19;;;;;;;;;10.00;10.00;;;;;18.93;43.68;99275.00;4877264;29;9570;-79
2023/06/30 00:31:48;;;;;;;;;14.60;14.60;;;;;18.83;43.79;99272.97;4897776;29;8884;-76
2023/06/30 00:34:17;;;;;;;;;18.00;16.80;;;;;18.92;43.45;99267.09;4908984;29;8907;-78
2023/06/30 00:36:47;;;;;;;;;17.40;16.60;;;;;18.48;44.52;99267.91;4928248;29;8883;-76
2023/06/30 00:39:17;;;;;;;;;22.00;15.20;;;;;18.54;44.49;99268.38;4930520;29;8922;-78
2023/06/30 00:41:46;;;;;;;;;14.80;14.80;;;;;18.65;44.56;99266.91;4929590;29;8895;-79
2023/06/30 00:44:15;;;;;;;;;17.80;17.00;;;;;18.69;44.28;99266.63;4929470;29;8921;-77
2023/06/30 00:46:44;;;;;;;;;15.20;15.20;;;;;18.80;43.64;99265.16;4915209;29;8863;-78
2023/06/30 00:49:13;;;;;;;;;13.20;11.00;;;;;18.94;43.08;99262.53;4914772;29;9029;-79
2023/06/30 00:51:42;;;;;;;;;16.40;16.40;;;;;18.84;43.40;99264.03;4911713;29;8879;-78
2023/06/30 00:54:11;;;;;;;;;17.20;17.00;;;;;18.66;43.76;99258.81;4897265;29;8941;-77
2023/06/30 00:56:41;;;;;;;;;16.80;15.60;;;;;18.72;43.54;99258.47;4897083;29;8863;-77
2023/06/30 00:59:10;;;;;;;;;15.20;15.20;;;;;18.91;43.25;99258.25;4913467;29;8905;-78
2023/06/30 01:01:44;;;;;;;;;18.00;16.00;;;;;18.99;43.06;99260.44;4913597;29;8851;-77
2023/06/30 01:04:18;;;;;;;;;15.80;15.80;;;;;19.05;42.49;99253.91;4914494;29;8883;-79
2023/06/30 01:06:54;;;;;;;;;18.40;15.20;;;;;19.14;42.59;99253.34;4928132;29;9046;-78
2023/06/30 01:09:27;;;;;;;;;17.00;16.20;;;;;19.14;42.29;99237.34;4914620;29;8945;-79
2023/06/30 01:11:58;;;;;;;;;15.60;15.60;;;;;19.30;42.21;99247.91;4913482;29;9667;-80
2023/06/30 01:14:29;;;;;;;;;16.20;15.20;;;;;19.29;42.22;99239.06;4913394;29;8882;-77
2023/06/30 01:17:00;;;;;;;;;14.00;14.00;;;;;19.38;41.83;99239.44;4881791;29;8864;-77
2023/06/30 01:19:36;;;;;;;;;15.20;15.20;;;;;19.31;41.76;99238.97;4913489;29;8863;-79
2023/06/30 01:22:24;;;;;;;;;18.40;17.00;;;;;19.24;41.96;99243.81;4915077;29;8871;-80
2023/06/30 01:24:59;;;;;;;;;14.60;14.40;;;;;18.99;42.34;99238.25;4898874;29;8952;-78
2023/06/30 01:27:30;;;;;;;;;17.60;17.00;;;;;18.86;42.69;99241.69;4900537;29;8884;-78
2023/06/30 01:30:00;;;;;;;;;14.60;14.40;;;;;18.86;42.63;99244.34;4900087;29;8886;-76
2023/06/30 01:32:30;;;;;;;;;14.00;14.00;;;;;18.72;42.90;99236.28;4895912;29;8877;-79
2023/06/30 01:34:58;;;;;;;;;14.00;14.00;;;;;18.77;42.64;99238.69;4895499;29;8890;-78
2023/06/30 01:37:27;;;;;;;;;16.40;15.80;;;;;18.78;42.67;99235.94;4878630;29;8870;-77
2023/06/30 01:39:59;;;;;;;;;12.20;11.40;;;;;18.94;42.14;99231.41;4920420;29;8895;-78
2023/06/30 01:42:29;;;;;;;;;16.00;15.40;;;;;19.00;42.01;99232.84;4923925;29;8863;-80
2023/06/30 01:44:59;;;;;;;;;14.20;14.20;;;;;18.97;42.14;99230.38;4929545;29;8993;-80
2023/06/30 01:47:29;;;;;;;;;15.20;14.60;;;;;19.09;41.65;99228.78;4912430;29;8981;-77
2023/06/30 01:49:58;;;;;;;;;15.40;14.80;;;;;18.69;42.33;99221.38;4927876;29;8871;-79
2023/06/30 01:52:27;;;;;;;;;16.00;15.40;;;;;18.53;42.85;99228.53;4911957;29;8883;-78
2023/06/30 01:54:56;;;;;;;;;16.20;16.20;;;;;18.60;42.70;99223.72;4928910;29;8957;-81
2023/06/30 01:57:26;;;;;;;;;14.60;14.60;;;;;18.46;43.02;99225.41;4914604;29;8875;-77
2023/06/30 01:59:56;;;;;;;;;15.60;15.00;;;;;18.53;42.66;99224.09;4936941;29;8871;-77
2023/06/30 02:02:25;;;;;;;;;17.00;17.00;;;;;18.62;42.52;99214.69;4913130;29;8863;-78
2023/06/30 02:04:54;;;;;;;;;16.00;16.00;;;;;18.59;42.48;99214.88;4911303;29;8875;-77
2023/06/30 02:07:23;;;;;;;;;15.80;15.80;;;;;18.52;42.74;99214.38;4928032;29;8875;-79
2023/06/30 02:09:52;;;;;;;;;18.80;15.20;;;;;18.71;42.19;99205.31;4928856;29;8891;-79
2023/06/30 02:12:21;;;;;;;;;17.80;15.20;;;;;18.75;41.76;99205.00;4924720;29;8853;-78
2023/06/30 02:14:50;;;;;;;;;17.60;17.60;;;;;18.69;42.03;99205.38;4928261;29;8910;-78
2023/06/30 02:17:28;;;;;;;;;15.20;15.20;;;;;18.59;42.17;99203.38;4937453;29;8876;-77
2023/06/30 02:19:57;;;;;;;;;16.40;15.40;;;;;18.67;41.94;99199.31;4881312;29;8883;-77
2023/06/30 02:22:26;;;;;;;;;16.20;14.40;;;;;18.85;41.58;99202.66;4911869;29;9617;-77
2023/06/30 02:24:56;;;;;;;;;14.40;14.40;;;;;18.98;41.14;99199.28;4895846;29;8861;-78
2023/06/30 02:27:26;;;;;;;;;15.20;15.20;;;;;19.13;40.77;99193.00;4911078;29;9588;-77
2023/06/30 02:29:56;;;;;;;;;16.20;14.00;;;;;19.08;40.83;99195.97;4894983;29;8888;-78
2023/06/30 02:32:25;;;;;;;;;15.00;15.00;;;;;19.11;40.84;99201.06;4909827;29;8865;-77
2023/06/30 02:34:55;;;;;;;;;15.00;15.00;;;;;19.23;40.79;99201.25;4910621;29;9004;-77
2023/06/30 02:37:24;;;;;;;;;12.80;12.60;;;;;19.31;40.50;99199.84;4910676;29;8862;-78
2023/06/30 02:39:56;;;;;;;;;14.80;14.80;;;;;19.20;40.87;99204.16;4910534;29;8924;-78
2023/06/30 02:42:25;;;;;;;;;10.80;10.60;;;;;19.13;40.72;99204.50;4910672;29;8850;-78
2023/06/30 02:44:54;;;;;;;;;13.60;13.60;;;;;19.16;40.56;99202.59;4910498;29;8870;-78
2023/06/30 02:47:23;;;;;;;;;13.60;13.60;;;;;18.90;40.98;99205.06;4909164;29;8892;-79
2023/06/30 02:49:52;;;;;;;;;15.20;14.40;;;;;18.86;41.24;99206.22;4894945;29;8892;-76
2023/06/30 02:52:22;;;;;;;;;15.60;14.00;;;;;18.83;41.59;99201.06;4894629;29;8858;-77
2023/06/30 02:54:51;;;;;;;;;13.60;12.40;;;;;18.79;41.49;99197.72;4892357;29;8908;-76
2023/06/30 02:57:21;;;;;;;;;14.60;14.00;;;;;19.01;41.04;99204.44;4892986;29;8916;-76
2023/06/30 02:59:50;;;;;;;;;15.20;15.20;;;;;19.02;40.82;99198.13;4908474;29;8966;-78
2023/06/30 03:02:19;;;;;;;;;14.40;14.20;;;;;19.06;40.73;99199.66;4910030;29;8921;-78
2023/06/30 03:04:48;;;;;;;;;17.00;15.20;;;;;19.09;40.77;99197.66;4908359;29;8908;-76
2023/06/30 03:07:18;;;;;;;;;17.00;15.60;;;;;19.08;40.86;99200.41;4910354;29;8954;-77
2023/06/30 03:09:48;;;;;;;;;16.00;16.00;;;;;19.00;40.57;99194.72;4930597;29;8933;-75
2023/06/30 03:12:17;;;;;;;;;15.20;15.20;;;;;19.05;40.79;99188.16;4931971;29;8902;-77
2023/06/30 03:14:46;;;;;;;;;20.60;20.60;;;;;18.95;40.93;99192.34;4914530;29;8886;-79
2023/06/30 03:17:15;;;;;;;;;19.80;18.20;;;;;19.04;40.90;99183.75;4911431;29;8859;-77
2023/06/30 03:19:44;;;;;;;;;16.80;16.40;;;;;19.13;40.28;99185.84;4926947;29;9664;-78
2023/06/30 03:22:13;;;;;;;;;15.40;15.40;;;;;19.25;40.46;99196.69;4909361;29;8855;-80
2023/06/30 03:24:42;;;;;;;;;19.80;17.60;;;;;19.40;40.35;99198.38;4927188;29;8875;-78
2023/06/30 03:27:13;;;;;;;;;15.80;15.80;;;;;19.51;40.26;99195.94;4912754;29;8966;-78
2023/06/30 03:29:41;;;;;;;;;14.40;14.40;;;;;19.60;39.92;99201.66;4912424;29;8966;-75
2023/06/30 03:32:13;;;;;;;;;15.60;14.20;;;;;19.75;39.65;99195.31;4911081;29;8875;-78
2023/06/30 03:34:42;;;;;;;;;20.80;19.40;;;;;19.81;39.68;99194.91;4911122;29;8937;-76
2023/06/30 03:37:11;;;;;;;;;22.60;22.20;;;;;19.94;39.74;99199.47;4910978;29;8867;-79
2023/06/30 03:39:39;;;;;;;;;18.80;18.00;;;;;19.79;39.74;99202.16;4909622;29;8898;-78
2023/06/30 03:42:08;;;;;;;;;16.60;16.20;;;;;19.89;39.33;99194.41;4926514;29;8855;-76
2023/06/30 03:44:40;;;;;;;;;14.40;14.40;;;;;20.04;39.34;99187.22;4931138;29;8852;-77
2023/06/30 03:47:09;;;;;;;;;15.60;15.40;;;;;20.14;39.42;99200.81;4932473;29;8863;-77
2023/06/30 03:49:38;;;;;;;;;26.40;24.00;;;;;20.29;39.41;99194.47;4926895;29;8913;-76
2023/06/30 03:52:07;;;;;;;;;25.00;24.20;;;;;20.44;39.29;99201.47;4909806;29;8864;-78
2023/06/30 03:54:36;;;;;;;;;15.20;14.00;;;;;20.47;38.98;99197.72;4925799;29;8867;-76
2023/06/30 03:57:05;;;;;;;;;18.20;18.20;;;;;20.56;39.09;99197.09;4909871;29;8883;-78
2023/06/30 03:59:34;;;;;;;;;19.80;17.80;;;;;20.65;38.94;99198.28;4912716;29;9017;-77
2023/06/30 04:02:05;;;;;;;;;8.40;7.40;;;;;20.68;38.83;99192.72;4919473;29;8974;-79
2023/06/30 04:04:34;;;;;;;;;16.60;16.60;;;;;20.71;38.58;99189.88;4916232;29;8871;-79
2023/06/30 04:07:03;;;;;;;;;16.80;16.20;;;;;20.78;38.09;99187.59;4912584;29;9641;-78
2023/06/30 04:09:32;;;;;;;;;19.80;18.80;;;;;20.67;38.05;99189.22;4910751;29;9021;-77
2023/06/30 04:12:01;;;;;;;;;22.20;21.40;;;;;20.84;38.19;99195.19;4909967;29;8887;-79
2023/06/30 04:14:30;;;;;;;;;15.60;14.80;;;;;20.99;37.87;99195.97;4930067;29;8890;-79
2023/06/30 04:16:59;;;;;;;;;33.00;30.75;;;;;21.15;37.95;99206.47;4915920;29;8870;-78
2023/06/30 04:19:29;;;;;;;;;48.50;39.50;;;;;21.30;38.07;99200.03;4930132;29;8913;-78
2023/06/30 04:21:58;;;;;;;;;14.20;14.20;;;;;21.30;37.76;99204.53;4930179;29;9718;-78
2023/06/30 04:24:30;;;;;;;;;27.00;26.80;;;;;21.29;37.66;99200.97;4915295;29;8909;-77
2023/06/30 04:26:59;;;;;;;;;24.40;23.40;;;;;21.38;37.35;99205.66;4913019;29;8855;-77
2023/06/30 04:29:28;;;;;;;;;18.80;18.40;;;;;21.49;37.81;99206.72;4928577;29;8883;-81
2023/06/30 04:31:57;;;;;;;;;17.00;16.80;;;;;21.42;37.71;99206.31;4929836;29;8922;-78
2023/06/30 04:34:26;;;;;;;;;16.60;16.60;;;;;21.56;37.47;99208.84;4913952;29;8906;-78
2023/06/30 04:36:56;;;;;;;;;16.40;16.40;;;;;21.70;37.37;99204.34;4929414;29;8875;-78
2023/06/30 04:39:25;;;;;;;;;15.20;14.20;;;;;21.86;37.08;99214.78;4914793;29;8887;-79
2023/06/30 04:41:54;;;;;;;;;14.80;14.80;;;;;22.04;37.23;99210.75;4927931;29;8883;-79
2023/06/30 04:44:23;;;;;;;;;19.40;18.60;;;;;21.96;36.63;99205.97;4928374;29;8859;-77
2023/06/30 04:46:52;;;;;;;;;16.00;15.80;;;;;22.15;36.64;99199.25;4914407;29;8871;-80
2023/06/30 04:49:21;;;;;;;;;12.00;12.00;;;;;22.29;36.63;99204.44;4915278;29;8887;-78
2023/06/30 04:51:50;;;;;;;;;16.80;16.80;;;;;22.36;36.19;99202.16;4912653;29;8851;-80
2023/06/30 04:54:21;;;;;;;;;15.00;15.00;;;;;22.39;36.02;99193.88;4897236;29;8859;-78
2023/06/30 04:56:50;;;;;;;;;14.00;13.00;;;;;22.44;35.83;99197.06;4912722;29;8875;-76
2023/06/30 04:59:19;;;;;;;;;15.20;15.00;;;;;22.51;36.09;99192.94;4897037;29;8855;-76
2023/06/30 05:01:48;;;;;;;;;15.80;15.80;;;;;22.60;36.25;99192.25;4912664;29;8875;-79
2023/06/30 05:04:17;;;;;;;;;23.80;23.80;;;;;22.59;36.14;99193.22;4914638;29;8887;-78
2023/06/30 05:06:46;;;;;;;;;19.20;18.20;;;;;22.76;36.26;99194.59;4914620;29;8902;-78
2023/06/30 05:09:15;;;;;;;;;15.80;15.60;;;;;22.82;35.81;99195.94;4913362;29;8876;-78
2023/06/30 05:11:46;;;;;;;;;12.60;12.60;;;;;23.06;35.47;99197.72;4913994;29;8962;-79
2023/06/30 05:14:14;;;;;;;;;14.80;14.80;;;;;23.05;35.81;99194.16;4916325;29;8875;-80
2023/06/30 05:16:44;;;;;;;;;19.00;18.80;;;;;23.25;35.45;99192.59;4918236;29;8879;-78
2023/06/30 05:19:13;;;;;;;;;17.60;16.40;;;;;23.33;35.41;99190.13;4898533;29;9649;-78
2023/06/30 05:21:42;;;;;;;;;15.60;15.00;;;;;23.19;35.78;99201.13;4912829;29;8867;-79
2023/06/30 05:24:10;;;;;;;;;17.00;16.00;;;;;23.32;35.59;99201.00;4914587;29;8905;-77
2023/06/30 05:26:39;;;;;;;;;15.60;15.60;;;;;23.46;35.29;99205.25;4914614;29;8864;-79
2023/06/30 05:29:10;;;;;;;;;17.60;16.80;;;;;23.61;35.10;99205.88;4912825;29;9033;-79
2023/06/30 05:31:39;;;;;;;;;13.60;13.60;;;;;23.75;34.99;99206.47;4918909;29;8860;-78
2023/06/30 05:34:09;;;;;;;;;14.40;13.80;;;;;23.85;34.69;99208.41;4900636;29;8906;-77
2023/06/30 05:36:39;;;;;;;;;16.40;15.20;;;;;23.95;34.70;99201.28;4914407;29;8867;-77
2023/06/30 05:39:07;;;;;;;;;15.40;14.60;;;;;24.02;34.55;99202.50;4914379;29;8991;-81
2023/06/30 05:41:36;;;;;;;;;14.60;13.80;;;;;24.06;34.41;99198.56;4914086;29;8852;-77
2023/06/30 05:44:06;;;;;;;;;13.80;13.80;;;;;24.24;34.44;99204.25;4913843;29;9627;-80
2023/06/30 05:46:38;;;;;;;;;14.00;14.00;;;;;24.39;34.56;99204.81;4912497;29;8980;-78
2023/06/30 05:49:07;;;;;;;;;17.60;15.40;;;;;24.39;34.09;99202.13;4911525;29;9009;-80
2023/06/30 05:51:37;;;;;;;;;17.00;16.40;;;;;24.03;34.30;99201.50;4913849;29;8942;-79
2023/06/30 05:54:06;;;;;;;;;15.20;15.00;;;;;24.26;33.77;99212.19;4927877;29;8950;-79
2023/06/30 05:56:35;;;;;;;;;15.80;15.00;;;;;24.36;34.15;99210.47;4913930;29;8867;-76
2023/06/30 05:59:04;;;;;;;;;13.80;13.00;;;;;24.28;33.39;99210.22;4880489;29;8891;-78
2023/06/30 06:01:33;;;;;;;;;12.20;12.20;;;;;24.09;33.57;99210.88;4895099;29;8863;-79
2023/06/30 06:04:03;;;;;;;;;12.40;12.40;;;;;24.28;33.62;99204.84;4910929;29;8887;-76
2023/06/30 06:06:33;;;;;;;;;16.60;14.20;;;;;24.11;33.74;99209.78;4912143;29;8867;-77
2023/06/30 06:09:02;;;;;;;;;13.20;13.20;;;;;24.50;33.53;99207.44;4916457;29;8969;-77
2023/06/30 06:11:31;;;;;;;;;12.40;12.40;;;;;24.85;33.41;99203.63;4915598;29;8863;-78
2023/06/30 06:14:00;;;;;;;;;11.40;11.40;;;;;25.03;32.60;99206.53;4914076;29;8975;-78
2023/06/30 06:16:29;;;;;;;;;15.60;14.60;;;;;25.06;32.69;99208.13;4912950;29;9618;-76
2023/06/30 06:18:58;;;;;;;;;14.60;13.00;;;;;25.28;32.31;99209.75;4910919;29;8898;-75
2023/06/30 06:21:28;;;;;;;;;13.00;13.00;;;;;25.49;32.56;99212.41;4913243;29;8863;-74
2023/06/30 06:23:57;;;;;;;;;15.20;15.00;;;;;25.63;32.18;99206.66;4909110;29;8948;-75
2023/06/30 06:26:26;;;;;;;;;15.40;15.00;;;;;25.41;31.99;99198.81;4896165;29;8859;-76
2023/06/30 06:28:55;;;;;;;;;12.60;12.00;;;;;25.67;31.52;99212.63;4913173;29;8879;-75
2023/06/30 06:31:24;;;;;;;;;11.20;11.20;;;;;25.63;31.28;99208.53;4913115;29;8977;-76
2023/06/30 06:33:53;;;;;;;;;14.40;14.40;;;;;25.75;30.86;99209.25;4926750;29;8894;-75
2023/06/30 06:36:24;;;;;;;;;16.00;16.00;;;;;25.16;31.89;99210.84;4912100;29;8875;-75
2023/06/30 06:38:54;;;;;;;;;14.80;14.80;;;;;25.26;32.02;99201.81;4911869;29;8910;-75
2023/06/30 06:41:23;;;;;;;;;15.40;14.80;;;;;25.46;32.36;99204.63;4912837;29;8901;-74
2023/06/30 06:43:51;;;;;;;;;13.40;13.40;;;;;25.66;31.48;99206.41;4911372;29;8894;-76
2023/06/30 06:46:20;;;;;;;;;13.40;12.20;;;;;25.62;31.13;99202.25;4912557;29;8884;-75
2023/06/30 06:48:49;;;;;;;;;18.20;18.20;;;;;25.46;31.35;99200.09;4912527;29;8883;-80
2023/06/30 06:51:18;;;;;;;;;14.60;14.00;;;;;25.46;31.76;99199.25;4912320;29;8883;-76
2023/06/30 06:53:47;;;;;;;;;13.00;12.60;;;;;25.58;30.89;99200.00;4911256;29;8918;-77
2023/06/30 06:56:17;;;;;;;;;10.60;10.60;;;;;25.83;30.86;99194.13;4926274;29;8875;-79
2023/06/30 06:58:46;;;;;;;;;11.80;11.80;;;;;26.02;29.55;99195.13;4911693;29;8875;-75
2023/06/30 07:01:15;;;;;;;;;10.40;10.40;;;;;26.13;29.16;99191.47;4929886;29;8903;-75
2023/06/30 07:03:44;;;;;;;;;11.20;10.20;;;;;26.24;29.09;99191.34;4914950;29;8892;-75
2023/06/30 07:06:13;;;;;;;;;16.80;14.00;;;;;26.11;29.57;99193.47;4927811;29;8898;-76
2023/06/30 07:08:42;;;;;;;;;10.80;10.80;;;;;25.65;29.48;99188.53;4895431;29;8895;-78
2023/06/30 07:11:12;;;;;;;;;9.80;9.60;;;;;25.72;29.62;99188.84;4912520;29;8867;-75
2023/06/30 07:13:42;;;;;;;;;12.60;12.00;;;;;25.97;30.03;99183.97;4901037;29;9006;-73
2023/06/30 07:16:11;;;;;;;;;12.20;12.20;;;;;25.94;30.16;99181.53;4916894;29;9696;-75
2023/06/30 07:18:40;;;;;;;;;9.80;9.80;;;;;25.95;30.32;99181.41;4933052;29;8868;-79
2023/06/30 07:21:10;;;;;;;;;11.60;11.60;;;;;26.22;29.94;99179.84;4913552;29;8879;-75
2023/06/30 07:23:38;;;;;;;;;12.00;12.00;;;;;26.37;29.10;99183.81;4911093;29;8985;-74
2023/06/30 07:26:07;;;;;;;;;12.60;11.20;;;;;26.34;29.26;99183.25;4907220;29;9830;-75
2023/06/30 07:28:36;;;;;;;;;16.60;15.40;;;;;26.53;29.04;99179.69;4912109;29;8876;-77
2023/06/30 07:31:06;;;;;;;;;14.60;13.80;;;;;26.76;28.50;99180.22;4914991;29;8863;-75
2023/06/30 07:33:35;;;;;;;;;13.80;11.00;;;;;26.81;28.94;99178.78;4911986;29;9021;-74
2023/06/30 07:36:04;;;;;;;;;13.20;12.20;;;;;26.78;29.83;99181.78;4910825;29;8866;-76
2023/06/30 07:38:33;;;;;;;;;11.20;11.20;;;;;26.91;29.62;99183.31;4910831;29;8863;-76
2023/06/30 07:41:02;;;;;;;;;14.00;14.00;;;;;26.98;29.53;99176.34;4926480;29;8887;-75
2023/06/30 07:43:31;;;;;;;;;16.40;15.40;;;;;27.04;29.91;99178.47;4912020;29;8860;-75
2023/06/30 07:46:00;;;;;;;;;11.40;11.00;;;;;27.09;28.68;99170.78;4904735;29;8887;-74
2023/06/30 07:48:30;;;;;;;;;9.80;9.80;;;;;27.02;28.26;99178.63;4914750;29;8897;-76
2023/06/30 07:50:59;;;;;;;;;10.80;10.80;;;;;27.15;27.73;99167.50;4915623;29;8863;-76
2023/06/30 07:53:38;;;;;;;;;9.40;9.40;;;;;26.95;27.48;99164.00;4915667;29;9030;-77
2023/06/30 07:56:07;;;;;;;;;9.00;9.00;;;;;27.00;27.22;99168.94;4915848;29;9047;-75
2023/06/30 07:58:36;;;;;;;;;11.00;10.60;;;;;27.04;27.21;99159.59;4930833;29;8904;-75
2023/06/30 08:01:05;;;;;;;;;11.00;11.00;;;;;27.15;27.70;99159.41;4915781;29;8864;-75
2023/06/30 08:03:35;;;;;;;;;10.20;10.20;;;;;27.17;27.42;99161.94;4908265;29;8876;-79
2023/06/30 08:06:05;;;;;;;;;8.60;8.20;;;;;27.17;26.20;99162.78;4915503;29;8871;-76
2023/06/30 08:08:34;;;;;;;;;7.40;7.40;;;;;27.22;26.06;99154.28;4914571;29;8879;-76
2023/06/30 08:11:03;;;;;;;;;8.80;8.80;;;;;27.18;26.41;99166.38;4914141;29;9609;-76
2023/06/30 08:13:31;;;;;;;;;9.00;9.00;;;;;27.21;26.28;99153.44;4914262;29;8886;-78
2023/06/30 08:16:01;;;;;;;;;14.20;10.40;;;;;27.33;26.51;99154.06;4915235;29;8898;-77
2023/06/30 08:18:30;;;;;;;;;8.00;8.00;;;;;27.28;26.66;99158.22;4915284;29;8881;-75
2023/06/30 08:21:04;;;;;;;;;9.60;9.60;;;;;27.29;26.58;99149.97;4915433;29;8871;-77
2023/06/30 08:23:33;;;;;;;;;10.80;10.80;;;;;27.27;26.57;99156.50;4915066;29;8887;-76
2023/06/30 08:26:02;;;;;;;;;10.00;8.80;;;;;27.15;26.67;99153.16;4915220;29;8903;-77
2023/06/30 08:28:31;;;;;;;;;10.00;8.20;;;;;27.23;26.41;99150.56;4914224;29;8953;-75
2023/06/30 08:31:00;;;;;;;;;11.80;11.80;;;;;27.31;26.65;99149.81;4896108;29;8910;-77
2023/06/30 08:33:29;;;;;;;;;12.40;11.00;;;;;27.23;26.47;99150.56;4928357;29;9617;-74
2023/06/30 08:36:01;;;;;;;;;11.60;11.60;;;;;27.41;26.48;99151.47;4914840;29;8903;-75
2023/06/30 08:38:32;;;;;;;;;10.40;10.40;;;;;27.45;26.16;99147.44;4929571;29;8903;-76
2023/06/30 08:41:02;;;;;;;;;12.40;11.80;;;;;27.55;26.47;99142.03;4914674;29;8953;-77
2023/06/30 08:43:32;;;;;;;;;14.40;13.40;;;;;27.56;26.80;99143.69;4929483;29;8899;-75
2023/06/30 08:46:03;;;;;;;;;11.80;11.80;;;;;27.60;26.54;99155.09;4915011;29;8898;-76
2023/06/30 08:48:32;;;;;;;;;11.60;11.60;;;;;27.54;26.08;99148.41;4915076;29;8890;-76
2023/06/30 08:51:03;;;;;;;;;10.60;10.20;;;;;27.48;26.58;99148.16;4915007;29;8911;-76
2023/06/30 08:53:34;;;;;;;;;14.20;13.60;;;;;27.27;27.11;99151.09;4915077;29;9102;-78
2023/06/30 08:56:06;;;;;;;;;12.00;12.00;;;;;27.42;26.92;99147.78;4896968;29;8875;-74
2023/06/30 08:58:35;;;;;;;;;12.40;12.40;;;;;27.42;27.26;99150.47;4912173;29;8875;-78
2023/06/30 09:01:04;;;;;;;;;14.00;12.80;;;;;27.32;26.85;99148.81;4929276;29;8875;-75
2023/06/30 09:03:34;;;;;;;;;13.00;13.00;;;;;27.44;26.94;99151.16;4914465;29;8905;-75
2023/06/30 09:06:03;;;;;;;;;13.40;13.40;;;;;27.42;27.07;99144.19;4917586;29;8961;-75
2023/06/30 09:08:42;;;;;;;;;9.20;9.20;;;;;27.45;26.96;99139.34;4915617;29;8894;-76
2023/06/30 09:11:13;;;;;;;;;11.20;11.20;;;;;27.52;27.11;99146.88;4903353;29;8883;-77
2023/06/30 09:13:43;;;;;;;;;13.40;13.40;;;;;27.44;26.73;99136.84;4914485;29;8914;-76
2023/06/30 09:16:17;;;;;;;;;13.80;13.80;;;;;27.31;26.94;99139.00;4914665;29;8882;-76
2023/06/30 09:18:48;;;;;;;;;11.60;11.60;;;;;27.45;26.85;99144.75;4914010;29;9535;-75
2023/06/30 09:21:17;;;;;;;;;12.60;12.60;;;;;27.40;26.72;99143.50;4914494;29;8887;-76
2023/06/30 09:23:53;;;;;;;;;12.40;12.40;;;;;27.28;26.76;99133.94;4912967;29;9013;-75
2023/06/30 09:26:22;;;;;;;;;10.20;9.40;;;;;27.40;25.55;99133.59;4914219;29;8871;-75
2023/06/30 09:28:54;;;;;;;;;8.60;8.60;;;;;27.48;25.20;99127.44;4929161;29;8994;-77
2023/06/30 09:31:30;;;;;;;;;10.40;10.40;;;;;27.62;25.64;99132.31;4914427;29;8914;-75
2023/06/30 09:34:12;;;;;;;;;10.60;10.60;;;;;27.71;26.46;99121.63;4928860;29;8899;-78
2023/06/30 09:36:48;;;;;;;;;12.40;12.40;;;;;27.66;26.23;99113.97;4896481;29;9085;-77
2023/06/30 09:39:18;;;;;;;;;9.80;9.80;;;;;27.54;26.27;99116.00;4913561;29;8879;-77
2023/06/30 09:41:49;;;;;;;;;8.60;8.60;;;;;27.60;25.95;99120.81;4914441;29;8948;-78
2023/06/30 09:44:20;;;;;;;;;12.40;12.40;;;;;27.56;25.94;99113.16;4915174;29;8921;-79
2023/06/30 09:46:50;;;;;;;;;10.80;10.40;;;;;27.01;26.46;99114.00;4914141;29;8863;-78
2023/06/30 09:49:26;;;;;;;;;12.60;12.60;;;;;26.93;26.79;99106.66;4926920;29;8868;-79
2023/06/30 09:51:56;;;;;;;;;14.60;14.60;;;;;27.19;26.99;99108.69;4915246;29;8867;-77
2023/06/30 09:54:27;;;;;;;;;13.80;13.00;;;;;27.39;27.42;99102.19;4912382;29;8875;-78
2023/06/30 09:57:05;;;;;;;;;10.20;10.20;;;;;27.47;26.77;99104.13;4913802;29;8898;-78
2023/06/30 09:59:34;;;;;;;;;8.80;8.80;;;;;27.39;25.26;99112.13;4913423;29;8871;-77
2023/06/30 10:02:03;;;;;;;;;8.80;8.80;;;;;27.46;25.00;99110.53;4914009;29;8867;-81
2023/06/30 10:04:33;;;;;;;;;9.00;9.00;;;;;27.38;25.19;99105.91;4912691;29;8933;-77
2023/06/30 10:07:07;;;;;;;;;8.60;8.60;;;;;27.39;24.89;99099.47;4919060;29;8885;-77
2023/06/30 10:09:41;;;;;;;;;11.40;11.40;;;;;27.57;25.23;99095.97;4925016;29;9026;-79
2023/06/30 10:12:12;;;;;;;;;8.80;8.80;;;;;27.55;25.33;99096.13;4914619;29;9049;-78
2023/06/30 10:14:44;;;;;;;;;9.80;8.80;;;;;27.57;25.77;99093.28;4927701;29;8994;-78
2023/06/30 10:17:15;;;;;;;;;12.00;9.40;;;;;27.63;26.14;99082.72;4913742;29;8855;-77
2023/06/30 10:19:44;;;;;;;;;13.20;11.40;;;;;27.81;26.59;99089.97;4908846;29;8875;-78
2023/06/30 10:22:14;;;;;;;;;10.00;8.40;;;;;27.82;25.12;99088.97;4927622;29;8907;-78
2023/06/30 10:24:47;;;;;;;;;9.60;9.60;;;;;27.79;25.09;99091.97;4913111;29;9649;-79
2023/06/30 10:27:19;;;;;;;;;9.20;9.20;;;;;27.73;25.03;99090.75;4913259;29;8918;-78
2023/06/30 10:29:48;;;;;;;;;8.80;8.80;;;;;27.77;25.14;99083.19;4913428;29;9005;-78
2023/06/30 10:32:20;;;;;;;;;9.60;9.60;;;;;27.69;24.55;99080.44;4927297;29;8911;-79
2023/06/30 10:34:50;;;;;;;;;7.80;7.80;;;;;27.69;24.71;99088.53;4925927;29;8959;-78
2023/06/30 10:37:19;;;;;;;;;9.40;9.40;;;;;27.08;25.33;99080.09;4913633;29;8879;-78
2023/06/30 10:39:50;;;;;;;;;8.40;8.20;;;;;27.52;24.63;99082.09;4914287;29;8891;-76
2023/06/30 10:42:20;;;;;;;;;9.00;9.00;;;;;27.43;24.67;99079.28;4912863;29;8864;-78
2023/06/30 10:44:49;;;;;;;;;9.20;9.20;;;;;27.58;24.80;99079.63;4909997;29;8872;-79
2023/06/30 10:47:23;;;;;;;;;12.60;11.60;;;;;27.82;25.07;99078.19;4912542;29;8871;-78
2023/06/30 10:49:53;;;;;;;;;7.40;7.40;;;;;27.85;24.94;99075.16;4927538;29;8891;-78
2023/06/30 10:52:27;;;;;;;;;9.00;9.00;;;;;28.06;24.22;99076.69;4929043;29;8908;-77
2023/06/30 10:55:05;;;;;;;;;8.20;8.00;;;;;27.97;25.15;99065.81;4917907;29;9634;-77
2023/06/30 10:57:36;;;;;;;;;8.00;8.00;;;;;28.14;24.33;99063.25;4895738;29;8859;-78
2023/06/30 11:00:07;;;;;;;;;9.20;9.20;;;;;28.32;24.19;99061.38;4928119;29;8862;-76
2023/06/30 11:02:38;;;;;;;;;9.40;9.20;;;;;28.47;23.62;99063.50;4925334;29;8908;-80
2023/06/30 11:05:20;;;;;;;;;10.80;10.80;;;;;28.68;23.99;99063.13;4909578;29;8917;-79
2023/06/30 11:07:52;;;;;;;;;3.00;3.00;;;;;28.24;24.64;99052.38;4892134;29;8978;-77
2023/06/30 11:10:37;;;;;;;;;10.20;10.20;;;;;28.49;24.93;99054.19;4905415;29;8891;-79
2023/06/30 11:13:09;;;;;;;;;9.20;9.20;;;;;28.33;25.14;99041.44;4867471;29;8946;-77
2023/06/30 11:15:40;;;;;;;;;13.00;12.00;;;;;28.41;25.18;99049.59;4894552;29;8887;-78
2023/06/30 11:18:13;;;;;;;;;11.00;11.00;;;;;28.73;25.27;99044.56;4909725;29;8910;-77
2023/06/30 11:20:58;;;;;;;;;8.40;8.40;;;;;28.96;24.38;99044.81;4909361;29;8953;-78
2023/06/30 11:23:29;;;;;;;;;8.20;8.00;;;;;29.11;24.08;99045.06;4909850;29;8910;-79
2023/06/30 11:26:11;;;;;;;;;8.20;8.20;;;;;29.31;24.03;99042.91;4853323;29;9008;-78
2023/06/30 11:28:41;;;;;;;;;12.60;12.40;;;;;29.52;24.36;99042.47;4853834;29;8872;-79
2023/06/30 11:31:11;;;;;;;;;10.00;10.00;;;;;29.70;23.24;99031.50;4853779;29;8951;-79
2023/06/30 11:33:41;;;;;;;;;6.80;6.80;;;;;29.86;23.06;99033.34;4853871;29;8878;-79
2023/06/30 11:36:13;;;;;;;;;12.40;12.40;;;;;29.54;23.19;99027.75;4861589;29;8901;-77
2023/06/30 11:38:44;;;;;;;;;10.40;10.40;;;;;29.94;22.86;99019.81;4871850;29;8892;-79
2023/06/30 11:41:18;;;;;;;;;9.20;8.20;;;;;30.15;22.05;99022.00;4871712;29;9668;-78